CheckWX is a tool to help pilots better visualize weather data.  It is not intended as a substitute for an official pre-flight weather briefing.

04:14:06 UTC

C83 METAR
Byron Airport
Byron, California, USA
Current

19 mins ago

KC83 170355Z AUTO 24012KT 10SM CLR 13/09 A3013 RMK AO2
Observed
Feb-17 @ 03:55 UTC
Wind
  • 240° at 12 KTS
Visibility
10 SM
Flight Rules
VFR
Cloud Levels
  • Clear skies
Temperature
13°C / 55°F
Dewpoint
C / 48°F
Humidity
77%
Altimeter
30.13" Hg
Pressure
1020.32 hPa
Previous

39 mins ago

KC83 170335Z AUTO 24009KT 10SM CLR 13/09 A3014 RMK AO2
Observed
Feb-17 @ 03:35 UTC
Wind
  • 240° at 9 KTS
Visibility
10 SM
Flight Rules
VFR
Cloud Levels
  • Clear skies
Temperature
13°C / 55°F
Dewpoint
C / 48°F
Humidity
77%
Altimeter
30.14" Hg
Pressure
1020.62 hPa
Previous

59 mins ago

KC83 170315Z AUTO 24010KT 10SM CLR 13/09 A3013 RMK AO2
Observed
Feb-17 @ 03:15 UTC
Wind
  • 240° at 10 KTS
Visibility
10 SM
Flight Rules
VFR
Cloud Levels
  • Clear skies
Temperature
13°C / 55°F
Dewpoint
C / 48°F
Humidity
77%
Altimeter
30.13" Hg
Pressure
1020.32 hPa